Time;durP1;ratioP1;P1;durP2;ratioP2;P2;SDS_P1;SDS_P2;PMS_P1;PMS_P2;Temp;Humidity;BMP_temperature;BMP_pressure;BME280_temperature;BME280_humidity;BME280_pressure;Samples;Min_cycle;Max_cycle;Signal;HPM_P1;HPM_P2
2021/12/04 03:45:45;;;;;;;18.48;10.27;;;-1.00;92.90;;;;;;5595840;24;20085;-79
2021/12/04 03:50:59;;;;;;;20.27;9.98;;;-1.00;93.10;;;;;;4849172;29;20097;-79
2021/12/04 03:53:25;;;;;;;16.70;9.93;;;-1.00;93.20;;;;;;4837296;29;20026;-79
2021/12/04 03:55:51;;;;;;;21.35;12.48;;;-1.10;93.10;;;;;;4837860;29;20215;-79
2021/12/04 03:58:21;;;;;;;20.63;10.43;;;-1.10;93.00;;;;;;4852804;29;20034;-79
2021/12/04 04:00:47;;;;;;;19.02;10.88;;;-1.10;93.00;;;;;;4853023;29;20322;-79
2021/12/04 04:03:14;;;;;;;21.75;11.85;;;-1.10;93.10;;;;;;4835920;29;20113;-79
2021/12/04 04:05:40;;;;;;;22.83;12.05;;;-1.10;92.90;;;;;;4852944;29;20034;-79
2021/12/04 04:08:06;;;;;;;18.60;11.25;;;-1.20;92.90;;;;;;4837454;29;20041;-79
2021/12/04 04:10:32;;;;;;;22.97;11.27;;;-1.20;93.00;;;;;;4834533;29;20353;-79
2021/12/04 04:12:58;;;;;;;20.45;12.00;;;-1.20;93.10;;;;;;4835953;29;20026;-79
2021/12/04 04:15:24;;;;;;;15.15;9.23;;;-1.30;93.10;;;;;;4822283;29;20053;-79
2021/12/04 04:17:51;;;;;;;22.98;11.35;;;-1.30;93.00;;;;;;4822176;29;20034;-79
2021/12/04 04:20:19;;;;;;;20.13;10.20;;;-1.40;93.00;;;;;;4822143;29;20086;-80
2021/12/04 04:22:46;;;;;;;19.17;10.35;;;-1.40;92.90;;;;;;4846452;29;20090;-79
2021/12/04 04:25:14;;;;;;;20.70;10.40;;;-1.40;92.90;;;;;;4852417;29;20423;-79
2021/12/04 04:27:40;;;;;;;21.50;11.52;;;-1.50;92.80;;;;;;4837255;29;20156;-79
2021/12/04 04:30:13;;;;;;;19.55;10.88;;;-1.50;92.90;;;;;;4837036;29;20030;-80
2021/12/04 04:32:39;;;;;;;18.08;9.77;;;-1.50;92.90;;;;;;4852171;29;20329;-79
2021/12/04 04:35:12;;;;;;;18.23;10.45;;;-1.60;92.90;;;;;;4822073;29;20034;-79
2021/12/04 05:12:53;;;;;;;17.63;10.18;;;-1.30;94.70;;;;;;4854042;29;20149;-79
2021/12/04 05:20:38;;;;;;;21.42;10.32;;;-1.20;94.40;;;;;;4816297;29;20031;-79
2021/12/04 05:23:07;;;;;;;20.48;10.68;;;-1.20;94.40;;;;;;4821418;29;20031;-79
2021/12/04 05:25:35;;;;;;;18.48;10.02;;;-1.10;94.50;;;;;;4814927;29;20049;-79
2021/12/04 05:28:06;;;;;;;21.30;11.75;;;-1.10;94.20;;;;;;4822957;29;20034;-79
2021/12/04 05:30:33;;;;;;;20.42;11.05;;;-1.10;94.20;;;;;;4818490;29;20035;-79
2021/12/04 05:32:59;;;;;;;28.75;10.80;;;-1.00;94.20;;;;;;4817716;29;20062;-79
2021/12/04 05:35:26;;;;;;;21.67;11.07;;;-1.00;94.10;;;;;;4803260;29;20041;-79
2021/12/04 05:37:52;;;;;;;17.30;10.30;;;-1.00;94.20;;;;;;4817859;29;20622;-80
2021/12/04 05:40:17;;;;;;;19.37;10.57;;;-1.00;94.20;;;;;;4817736;29;20042;-79
2021/12/04 05:42:46;;;;;;;19.83;10.77;;;-0.90;94.20;;;;;;4817736;29;20073;-79
2021/12/04 05:45:17;;;;;;;16.08;9.82;;;-0.90;94.20;;;;;;4832898;29;20094;-79
2021/12/04 05:47:50;;;;;;;17.77;10.25;;;-0.90;94.10;;;;;;4848040;29;20037;-80
2021/12/04 05:53:16;;;;;;;20.42;10.82;;;-0.80;93.90;;;;;;4832936;29;20065;-79
2021/12/04 05:56:03;;;;;;;18.25;10.25;;;-0.80;94.00;;;;;;4819905;29;20041;-79
2021/12/04 05:58:31;;;;;;;18.33;8.93;;;-0.70;94.10;;;;;;4828408;29;20099;-80
2021/12/04 06:01:00;;;;;;;24.88;10.95;;;-0.70;94.10;;;;;;4847739;29;20045;-80
2021/12/04 06:03:27;;;;;;;18.45;9.45;;;-0.70;94.20;;;;;;4847577;29;20039;-80
2021/12/04 06:05:53;;;;;;;18.13;10.55;;;-0.70;94.20;;;;;;4847792;29;20034;-80
2021/12/04 06:08:19;;;;;;;18.75;9.32;;;-0.60;94.20;;;;;;4802427;29;20057;-79
2021/12/04 06:10:47;;;;;;;15.90;8.30;;;-0.60;94.20;;;;;;4832602;29;20027;-79
2021/12/04 06:13:13;;;;;;;15.00;8.68;;;-0.60;94.10;;;;;;4817310;29;20152;-79
2021/12/04 06:15:41;;;;;;;21.30;10.30;;;-0.50;94.10;;;;;;4819716;29;20040;-79
2021/12/04 06:18:08;;;;;;;17.05;10.23;;;-0.50;94.10;;;;;;4851473;29;20285;-80
2021/12/04 06:23:20;;;;;;;19.07;10.13;;;-0.40;94.20;;;;;;4837301;29;20334;-80
2021/12/04 06:25:46;;;;;;;21.00;9.70;;;-0.40;94.20;;;;;;4821202;29;20035;-80
2021/12/04 06:28:12;;;;;;;16.33;9.30;;;-0.30;94.10;;;;;;4820913;29;20298;-80
2021/12/04 06:30:39;;;;;;;18.45;9.52;;;-0.30;94.00;;;;;;4805898;29;20276;-80
2021/12/04 06:33:07;;;;;;;;;;;-0.20;94.10;;;;;;4821327;29;20038;-80
2021/12/04 06:35:33;;;;;;;15.45;8.68;;;-0.20;94.20;;;;;;4835793;29;19971;-80
2021/12/04 06:38:00;;;;;;;17.90;9.75;;;-0.20;94.40;;;;;;4820808;29;20038;-80
2021/12/04 06:40:26;;;;;;;17.08;8.88;;;-0.10;94.30;;;;;;4850898;29;20058;-80
2021/12/04 06:42:57;;;;;;;15.05;9.38;;;-0.10;94.40;;;;;;4820412;29;20062;-80
2021/12/04 06:45:24;;;;;;;17.83;9.88;;;-0.10;94.30;;;;;;4820708;29;20279;-80
2021/12/04 06:47:59;;;;;;;18.25;8.48;;;0.00;94.30;;;;;;4837005;29;20046;-80
2021/12/04 06:50:47;;;;;;;19.50;9.57;;;0.00;94.40;;;;;;4821124;29;20034;-80
2021/12/04 06:55:44;;;;;;;23.15;10.82;;;0.10;94.40;;;;;;4834903;29;20031;-80
2021/12/04 06:58:10;;;;;;;20.50;10.85;;;0.20;94.60;;;;;;4820050;29;20038;-80
2021/12/04 07:00:36;;;;;;;19.13;9.20;;;0.20;94.60;;;;;;4803788;29;20103;-80
2021/12/04 07:03:02;;;;;;;23.55;13.45;;;0.20;94.60;;;;;;4833975;29;20117;-80
2021/12/04 07:05:27;;;;;;;25.98;16.48;;;0.30;94.60;;;;;;4849426;29;20030;-80
2021/12/04 07:07:53;;;;;;;23.73;15.55;;;0.40;94.60;;;;;;4819235;29;20038;-80
2021/12/04 07:10:19;;;;;;;24.40;14.68;;;0.40;94.90;;;;;;4817462;29;20026;-80
2021/12/04 07:12:45;;;;;;;35.80;23.65;;;0.50;95.60;;;;;;4833895;29;20114;-80
2021/12/04 07:15:12;;;;;;;24.48;14.57;;;0.60;96.30;;;;;;4834067;29;20034;-80
2021/12/04 07:17:37;;;;;;;65.32;48.88;;;0.80;96.50;;;;;;4847020;29;20094;-80
2021/12/04 07:20:05;;;;;;;44.95;29.85;;;0.90;96.80;;;;;;4818330;29;20106;-80
2021/12/04 07:22:31;;;;;;;45.35;33.08;;;1.10;96.70;;;;;;4832212;29;20038;-80
2021/12/04 07:24:57;;;;;;;49.90;33.55;;;1.20;96.50;;;;;;4819096;29;20065;-80
2021/12/04 07:27:24;;;;;;;34.45;25.00;;;1.40;96.50;;;;;;4833449;29;20041;-80
2021/12/04 07:29:50;;;;;;;58.10;41.05;;;1.50;96.30;;;;;;4801986;29;20039;-80
2021/12/04 07:32:16;;;;;;;95.47;74.70;;;1.60;96.40;;;;;;4818913;29;20048;-80
2021/12/04 07:34:42;;;;;;;76.38;55.17;;;1.70;96.20;;;;;;4818923;29;20385;-80
2021/12/04 07:37:08;;;;;;;27.95;19.67;;;1.80;96.00;;;;;;4801819;29;20027;-81
2021/12/04 07:39:33;;;;;;;28.25;19.08;;;2.00;95.90;;;;;;4803998;29;20030;-80
2021/12/04 07:41:59;;;;;;;20.25;12.77;;;2.10;95.80;;;;;;4834201;29;20022;-81
2021/12/04 07:44:25;;;;;;;20.48;13.93;;;2.10;95.60;;;;;;4818969;29;20088;-80
2021/12/04 07:46:51;;;;;;;18.58;11.43;;;2.20;95.40;;;;;;4833509;29;20054;-81
2021/12/04 07:49:17;;;;;;;20.45;13.23;;;2.30;95.40;;;;;;4855924;29;20197;-80
2021/12/04 07:51:44;;;;;;;76.10;47.25;;;2.40;95.30;;;;;;4803658;29;20038;-81
2021/12/04 07:54:10;;;;;;;29.00;18.55;;;2.50;95.00;;;;;;4833723;29;20041;-80
2021/12/04 07:56:36;;;;;;;18.85;12.10;;;2.60;94.90;;;;;;4817980;29;20030;-81
2021/12/04 07:59:02;;;;;;;19.52;11.88;;;2.60;94.70;;;;;;4802570;29;20045;-80
2021/12/04 08:01:28;;;;;;;19.08;12.02;;;2.70;94.60;;;;;;4832474;29;20050;-81
2021/12/04 08:03:54;;;;;;;21.88;11.60;;;2.80;94.40;;;;;;4818415;29;20177;-80
2021/12/04 08:06:20;;;;;;;23.42;12.05;;;2.80;94.30;;;;;;4833317;29;20031;-80
2021/12/04 08:08:46;;;;;;;20.25;11.60;;;2.90;94.20;;;;;;4848197;29;20042;-80
2021/12/04 08:11:12;;;;;;;22.20;11.90;;;2.90;94.20;;;;;;4817727;29;20069;-80
2021/12/04 08:13:38;;;;;;;22.15;12.15;;;2.90;94.10;;;;;;4833066;29;20278;-80
2021/12/04 08:16:04;;;;;;;16.90;10.95;;;3.00;94.10;;;;;;4833231;29;20102;-80
2021/12/04 08:18:30;;;;;;;25.48;12.20;;;3.10;94.00;;;;;;4833235;29;20049;-80
2021/12/04 08:20:56;;;;;;;21.25;12.68;;;3.10;93.60;;;;;;4817839;29;20038;-81
2021/12/04 08:23:21;;;;;;;24.95;16.15;;;3.10;93.70;;;;;;4832901;29;20350;-80
2021/12/04 08:25:48;;;;;;;30.42;16.05;;;3.20;93.40;;;;;;4817101;29;20037;-80
2021/12/04 08:28:14;;;;;;;21.45;11.63;;;3.30;93.50;;;;;;4836059;29;20358;-80
2021/12/04 08:30:40;;;;;;;20.10;12.23;;;3.30;93.10;;;;;;4817360;29;20109;-80
2021/12/04 08:33:10;;;;;;;18.95;11.13;;;3.40;92.90;;;;;;4848329;29;20033;-81
2021/12/04 08:35:40;;;;;;;20.10;11.30;;;3.40;92.90;;;;;;4830362;29;20035;-80
2021/12/04 08:38:11;;;;;;;18.30;11.00;;;3.50;92.60;;;;;;4846760;29;20057;-81
2021/12/04 08:40:38;;;;;;;35.75;26.98;;;3.50;92.60;;;;;;4820782;29;20042;-81
2021/12/04 08:43:04;;;;;;;19.80;13.48;;;3.50;92.50;;;;;;4831820;29;20030;-81
2021/12/04 08:45:31;;;;;;;19.17;12.63;;;3.60;92.30;;;;;;4816948;29;20062;-81
2021/12/04 08:47:57;;;;;;;21.33;11.47;;;3.60;92.30;;;;;;4817103;29;20038;-81
2021/12/04 08:50:28;;;;;;;19.73;12.30;;;3.70;92.50;;;;;;4833285;29;20436;-81
2021/12/04 08:52:55;;;;;;;23.10;11.55;;;3.70;92.10;;;;;;4832903;29;20030;-81
2021/12/04 08:55:24;;;;;;;17.55;10.55;;;3.70;92.00;;;;;;4848122;29;20031;-81
2021/12/04 08:57:50;;;;;;;24.88;12.98;;;3.80;91.80;;;;;;4848105;29;20091;-81
2021/12/04 09:00:28;;;;;;;21.02;10.82;;;3.80;91.60;;;;;;5064817;28;20389;-80
2021/12/04 09:02:55;;;;;;;19.75;11.50;;;3.90;91.70;;;;;;5058395;28;20040;-80
2021/12/04 09:05:21;;;;;;;22.23;12.05;;;3.90;91.60;;;;;;5041756;28;20184;-80
2021/12/04 09:07:48;;;;;;;19.48;11.88;;;3.90;91.60;;;;;;5058047;28;20021;-80
2021/12/04 09:10:16;;;;;;;19.05;11.57;;;4.00;91.60;;;;;;5058297;28;20297;-80
2021/12/04 09:12:43;;;;;;;19.83;11.13;;;4.00;91.30;;;;;;5025031;28;20031;-80
2021/12/04 09:15:12;;;;;;;44.90;37.85;;;4.00;91.40;;;;;;5041636;28;20056;-80
2021/12/04 09:17:38;;;;;;;30.77;22.27;;;4.00;91.40;;;;;;5041594;28;20260;-80
2021/12/04 09:20:06;;;;;;;27.02;14.18;;;4.10;91.60;;;;;;5025090;28;20037;-80
2021/12/04 09:22:36;;;;;;;29.33;18.55;;;4.10;91.30;;;;;;5024940;28;20017;-80
2021/12/04 09:25:11;;;;;;;21.83;13.13;;;4.10;91.30;;;;;;5025720;28;20360;-80
2021/12/04 09:27:59;;;;;;;25.00;14.68;;;4.20;91.40;;;;;;5058067;28;20110;-80
2021/12/04 10:00:21;;;;;;;21.83;11.63;;;5.40;88.20;;;;;;5050178;28;20087;-80
2021/12/04 10:14:22;;;;;;;39.53;18.98;;;5.60;86.00;;;;;;5044020;28;20265;-80
2021/12/04 10:32:45;;;;;;;21.33;11.75;;;5.50;84.80;;;;;;5033524;28;20034;-79
2021/12/04 10:35:23;;;;;;;17.67;10.38;;;5.60;84.90;;;;;;5009231;28;20022;-80
2021/12/04 10:38:03;;;;;;;19.23;10.93;;;5.50;84.70;;;;;;5017004;28;20061;-80
2021/12/04 10:40:43;;;;;;;23.50;10.75;;;5.50;84.60;;;;;;5024490;28;20021;-80
2021/12/04 10:43:14;;;;;;;16.15;10.25;;;5.40;84.80;;;;;;5033018;28;20036;-80
2021/12/04 10:46:11;;;;;;;20.95;11.60;;;5.30;84.40;;;;;;5020202;28;20068;-80
2021/12/04 10:48:45;;;;;;;22.05;10.85;;;5.30;85.30;;;;;;5016853;28;20224;-80
2021/12/04 10:53:48;;;;;;;22.85;11.20;;;5.40;85.30;;;;;;5032050;28;20521;-80
2021/12/04 11:27:08;;;;;;;17.30;10.02;;;6.10;83.80;;;;;;5036623;28;20325;-80
2021/12/04 11:36:09;;;;;;;16.55;10.02;;;6.30;82.10;;;;;;5033720;28;20030;-80
2021/12/04 11:38:26;;;;;;;19.60;11.25;;;6.30;81.30;;;;;;5039229;28;20048;-80
2021/12/04 11:43:41;;;;;;;21.25;11.07;;;6.30;82.10;;;;;;5026375;28;20051;-81
2021/12/04 11:46:19;;;;;;;18.48;9.38;;;6.20;80.50;;;;;;5022768;28;20093;-81
2021/12/04 11:48:46;;;;;;;16.60;9.70;;;6.20;80.80;;;;;;5023211;28;20067;-81
2021/12/04 11:51:21;;;;;;;22.08;10.68;;;6.20;81.10;;;;;;5022873;28;20022;-81
2021/12/04 11:53:49;;;;;;;18.17;9.65;;;6.10;81.30;;;;;;5045968;28;20036;-81
2021/12/04 11:56:22;;;;;;;17.95;9.93;;;6.20;81.40;;;;;;5031657;28;20312;-81
2021/12/04 11:58:50;;;;;;;19.80;11.27;;;6.20;81.40;;;;;;5032099;28;20076;-81
2021/12/04 12:01:22;;;;;;;16.27;10.13;;;6.20;80.80;;;;;;5026172;28;20033;-81
2021/12/04 12:03:54;;;;;;;23.52;12.13;;;6.10;80.60;;;;;;5012133;28;20052;-81
2021/12/04 12:06:33;;;;;;;20.75;11.15;;;6.00;81.10;;;;;;5033121;28;20037;-80
2021/12/04 12:09:12;;;;;;;28.60;13.13;;;6.00;82.20;;;;;;5020977;28;20029;-81
2021/12/04 12:11:46;;;;;;;22.17;10.80;;;6.00;82.70;;;;;;5021763;28;20033;-82
2021/12/04 12:14:12;;;;;;;19.48;10.32;;;6.10;81.80;;;;;;5027671;28;20026;-81
2021/12/04 12:16:52;;;;;;;17.08;10.40;;;6.20;81.20;;;;;;5022088;28;20095;-81
2021/12/04 12:19:41;;;;;;;21.15;10.68;;;6.20;80.90;;;;;;5016806;28;20033;-81
2021/12/04 12:25:41;;;;;;;19.05;10.27;;;6.30;81.00;;;;;;5040553;28;20035;-81
2021/12/04 12:36:28;;;;;;;20.90;9.10;;;6.40;80.60;;;;;;5026769;28;20048;-82
2021/12/04 12:39:01;;;;;;;13.57;9.00;;;6.40;81.20;;;;;;5044695;28;20069;-81
2021/12/04 12:41:49;;;;;;;14.85;9.05;;;6.50;81.60;;;;;;5027508;28;20029;-82
2021/12/04 12:44:22;;;;;;;17.42;7.65;;;6.70;80.00;;;;;;5033917;28;20088;-82
2021/12/04 12:46:59;;;;;;;10.85;7.05;;;6.60;78.40;;;;;;5037190;28;20028;-82
2021/12/04 12:49:38;;;;;;;12.63;7.47;;;6.60;78.80;;;;;;5030851;28;20047;-82
2021/12/04 12:52:19;;;;;;;10.65;6.53;;;6.60;77.70;;;;;;5013272;28;20357;-82
2021/12/04 12:54:56;;;;;;;14.80;7.18;;;6.60;78.40;;;;;;5034712;28;20029;-82
2021/12/04 12:57:34;;;;;;;14.95;7.30;;;6.60;78.20;;;;;;5018905;28;20018;-82
2021/12/04 13:11:46;;;;;;;15.48;7.18;;;6.60;76.70;;;;;;5029677;28;20210;-82
2021/12/04 13:14:45;;;;;;;13.52;6.57;;;6.40;76.60;;;;;;5015958;28;20373;-81
2021/12/04 13:17:20;;;;;;;12.52;7.25;;;6.40;76.20;;;;;;5014839;28;20033;-82
2021/12/04 13:19:50;;;;;;;15.48;6.72;;;6.40;76.10;;;;;;5029882;28;20075;-82
2021/12/04 13:22:20;;;;;;;11.30;6.97;;;6.40;76.70;;;;;;5023699;28;20313;-82
2021/12/04 13:24:48;;;;;;;9.63;5.85;;;6.40;75.80;;;;;;5029231;28;20213;-81
2021/12/04 13:29:50;;;;;;;12.80;6.30;;;6.30;74.30;;;;;;5043706;28;20036;-82
2021/12/04 13:32:25;;;;;;;13.57;6.85;;;6.30;74.70;;;;;;5039658;28;20104;-82
2021/12/04 13:34:51;;;;;;;11.73;7.05;;;6.30;75.00;;;;;;5033805;28;20211;-82
2021/12/04 13:37:25;;;;;;;14.13;7.18;;;6.30;75.70;;;;;;5011274;28;20048;-82
2021/12/04 13:39:57;;;;;;;11.43;6.60;;;6.30;75.60;;;;;;5031593;28;20071;-81
2021/12/04 13:42:24;;;;;;;14.48;7.43;;;6.30;75.40;;;;;;5029630;28;20057;-82
2021/12/04 13:44:56;;;;;;;14.15;6.75;;;6.20;75.70;;;;;;5022130;28;20021;-82
2021/12/04 13:47:22;;;;;;;18.80;7.05;;;6.30;75.70;;;;;;5008848;28;20112;-82
2021/12/04 13:49:54;;;;;;;12.00;7.07;;;6.30;75.60;;;;;;5020303;28;20037;-82
2021/12/04 13:52:21;;;;;;;12.15;6.97;;;6.30;75.70;;;;;;5027497;28;20017;-82
2021/12/04 13:54:52;;;;;;;11.30;6.97;;;6.30;75.90;;;;;;5010329;28;20060;-82
2021/12/04 13:57:18;;;;;;;10.82;7.03;;;6.20;75.40;;;;;;5037901;28;20384;-82
2021/12/04 13:59:44;;;;;;;11.05;6.53;;;6.20;75.60;;;;;;5016401;28;20061;-82
2021/12/04 14:02:26;;;;;;;16.88;8.20;;;6.20;75.40;;;;;;5031126;28;20033;-82
2021/12/04 14:05:22;;;;;;;14.45;7.90;;;6.20;75.60;;;;;;5025105;28;20071;-82
2021/12/04 14:07:54;;;;;;;13.23;7.43;;;6.10;75.10;;;;;;5023378;28;20125;-82
2021/12/04 14:10:26;;;;;;;14.75;6.75;;;6.10;75.20;;;;;;5023723;28;20308;-81
2021/12/04 14:12:54;;;;;;;12.25;7.32;;;6.10;75.30;;;;;;5018775;28;20042;-82
2021/12/04 14:15:22;;;;;;;15.10;7.88;;;6.20;75.40;;;;;;5001866;28;20202;-82
2021/12/04 14:17:58;;;;;;;13.55;7.05;;;6.10;75.20;;;;;;4995393;28;20034;-82
2021/12/04 14:20:28;;;;;;;11.25;7.43;;;6.10;75.00;;;;;;5024867;28;20037;-81
2021/12/04 14:22:56;;;;;;;12.35;7.57;;;6.00;75.10;;;;;;5024269;28;20108;-82
2021/12/04 14:25:24;;;;;;;13.88;7.43;;;6.00;75.10;;;;;;5007253;28;20126;-82
2021/12/04 14:27:51;;;;;;;11.60;6.72;;;6.00;75.20;;;;;;5025449;28;20034;-82
2021/12/04 14:30:24;;;;;;;12.93;6.95;;;6.00;74.50;;;;;;5012556;28;20033;-82
2021/12/04 14:32:54;;;;;;;13.23;7.43;;;6.00;74.70;;;;;;5017167;28;20344;-82
2021/12/04 14:35:23;;;;;;;12.43;7.18;;;5.90;74.40;;;;;;5008849;28;20410;-81
2021/12/04 14:37:52;;;;;;;15.90;6.90;;;5.90;74.00;;;;;;5008545;28;20049;-82
2021/12/04 14:40:35;;;;;;;13.02;6.97;;;5.90;74.10;;;;;;5007309;28;20337;-82
2021/12/04 14:43:06;;;;;;;12.18;6.22;;;5.90;73.90;;;;;;5009141;28;20044;-82
2021/12/04 14:45:35;;;;;;;16.48;7.57;;;5.80;73.50;;;;;;5031389;28;20037;-82
2021/12/04 14:48:01;;;;;;;14.68;7.25;;;5.80;73.80;;;;;;5019908;28;20028;-81
2021/12/04 14:50:27;;;;;;;15.45;7.50;;;5.70;73.90;;;;;;5034171;28;20022;-81
2021/12/04 14:52:58;;;;;;;11.35;6.75;;;5.70;74.50;;;;;;5017429;28;20033;-82
2021/12/04 14:55:33;;;;;;;14.60;6.95;;;5.70;74.60;;;;;;5018132;28;20333;-82
2021/12/04 14:58:07;;;;;;;13.60;7.88;;;5.60;74.20;;;;;;5025226;28;20037;-81
2021/12/04 15:00:45;;;;;;;16.17;7.47;;;5.50;74.50;;;;;;5019344;28;20057;-82
2021/12/04 15:03:18;;;;;;;14.93;7.03;;;5.50;74.70;;;;;;5019288;28;20025;-81
2021/12/04 15:05:50;;;;;;;12.38;6.45;;;5.40;74.80;;;;;;5027017;28;20087;-81
2021/12/04 15:08:21;;;;;;;10.98;6.78;;;5.40;74.40;;;;;;5023249;28;20025;-82
2021/12/04 15:10:55;;;;;;;18.13;7.75;;;5.40;74.90;;;;;;5023270;28;20029;-82
2021/12/04 15:13:25;;;;;;;16.23;9.63;;;5.40;74.50;;;;;;5044316;28;20108;-82
2021/12/04 15:15:57;;;;;;;14.88;7.97;;;5.40;74.90;;;;;;5038131;28;20079;-82
2021/12/04 15:18:25;;;;;;;14.10;7.53;;;5.40;74.60;;;;;;5028430;28;20030;-82
2021/12/04 15:20:58;;;;;;;10.73;7.00;;;5.40;74.50;;;;;;5020050;28;20207;-82
2021/12/04 15:23:27;;;;;;;14.45;8.20;;;5.40;74.10;;;;;;5022756;28;20101;-82
2021/12/04 15:25:56;;;;;;;11.50;7.22;;;5.40;74.10;;;;;;5022726;28;20026;-82
2021/12/04 15:28:25;;;;;;;15.75;8.10;;;5.40;74.40;;;;;;5029799;28;20018;-82
2021/12/04 15:30:56;;;;;;;13.80;6.97;;;5.40;73.70;;;;;;5038734;28;20217;-81
2021/12/04 15:33:38;;;;;;;13.23;8.02;;;5.40;73.20;;;;;;5034338;28;20101;-82
2021/12/04 15:36:05;;;;;;;9.80;5.78;;;5.40;73.30;;;;;;5040225;28;20204;-82
2021/12/04 15:38:38;;;;;;;;;;;5.40;73.90;;;;;;5015680;28;20037;-82
2021/12/04 15:43:39;;;;;;;14.75;7.88;;;5.40;73.80;;;;;;5037131;28;20029;-82
2021/12/04 15:54:34;;;;;;;13.13;8.32;;;5.50;73.80;;;;;;5020821;28;20048;-82
2021/12/04 15:57:08;;;;;;;18.08;9.95;;;5.40;73.70;;;;;;5024866;28;20224;-82
2021/12/04 15:59:35;;;;;;;15.38;9.75;;;5.40;74.00;;;;;;5026797;28;20052;-82
2021/12/04 16:02:12;;;;;;;16.17;9.35;;;5.40;74.10;;;;;;4995110;28;20033;-82
2021/12/04 16:04:39;;;;;;;15.20;8.20;;;5.40;75.00;;;;;;5028704;28;20298;-82
2021/12/04 16:07:06;;;;;;;15.68;9.07;;;5.40;75.50;;;;;;5012116;28;20059;-82
2021/12/04 16:09:35;;;;;;;13.25;8.43;;;5.40;76.00;;;;;;5026364;28;20116;-82
2021/12/04 16:12:11;;;;;;;15.48;8.40;;;5.40;76.40;;;;;;5025469;28;20030;-82
2021/12/04 16:14:39;;;;;;;12.63;8.35;;;5.40;76.70;;;;;;5035959;28;20030;-82
2021/12/04 16:17:07;;;;;;;14.60;8.73;;;5.40;76.90;;;;;;5030456;28;20068;-82
2021/12/04 16:19:35;;;;;;;15.13;8.27;;;5.40;76.60;;;;;;5010112;28;20329;-82
2021/12/04 16:22:07;;;;;;;185.52;89.80;;;5.40;77.00;;;;;;5030091;28;20081;-82
2021/12/04 16:24:33;;;;;;;22.13;10.75;;;5.30;76.50;;;;;;5028022;28;20021;-82
2021/12/04 16:27:05;;;;;;;13.77;7.80;;;5.30;76.40;;;;;;5010586;28;20232;-82
2021/12/04 16:29:35;;;;;;;18.10;9.48;;;5.30;76.50;;;;;;5009099;28;20045;-82
2021/12/04 16:37:19;;;;;;;21.02;9.10;;;5.30;75.90;;;;;;5034229;28;20321;-82
2021/12/04 16:39:50;;;;;;;60.75;27.75;;;5.30;76.20;;;;;;5020777;28;20208;-82
2021/12/04 16:42:15;;;;;;;50.80;29.67;;;5.30;75.60;;;;;;5004493;28;20033;-82
2021/12/04 16:44:44;;;;;;;29.60;16.17;;;5.30;75.70;;;;;;4999536;28;20068;-82
2021/12/04 16:47:09;;;;;;;21.92;12.10;;;5.30;75.50;;;;;;5020919;28;20022;-82
2021/12/04 16:49:36;;;;;;;16.60;9.23;;;5.30;75.40;;;;;;5019517;28;20241;-82
2021/12/04 17:00:24;;;;;;;14.70;9.70;;;5.10;75.30;;;;;;4984341;28;20046;-82
2021/12/04 17:02:50;;;;;;;14.38;7.82;;;5.10;75.10;;;;;;5015534;28;20026;-82
2021/12/04 17:05:17;;;;;;;20.65;11.48;;;5.00;75.10;;;;;;4963023;28;20041;-81
2021/12/04 17:07:44;;;;;;;14.82;7.75;;;5.00;75.30;;;;;;4984315;28;20038;-82
2021/12/04 17:10:12;;;;;;;15.23;8.55;;;5.00;75.20;;;;;;4998114;28;20027;-82
2021/12/04 17:12:38;;;;;;;16.50;7.72;;;5.00;75.40;;;;;;5015403;28;20034;-82
2021/12/04 17:15:07;;;;;;;21.03;13.00;;;5.00;75.20;;;;;;4971144;28;20329;-82
2021/12/04 17:17:41;;;;;;;18.75;8.77;;;4.90;75.20;;;;;;4968921;28;20042;-82
2021/12/04 17:20:07;;;;;;;27.10;12.77;;;4.90;75.70;;;;;;4968946;28;20033;-82
2021/12/04 17:22:33;;;;;;;15.20;8.67;;;4.90;74.90;;;;;;4972320;28;20127;-82
2021/12/04 17:24:59;;;;;;;17.88;9.63;;;4.90;74.90;;;;;;4953988;28;20029;-82
2021/12/04 17:27:26;;;;;;;42.00;24.00;;;4.80;74.80;;;;;;4999931;28;20034;-82
2021/12/04 17:29:52;;;;;;;18.13;9.50;;;4.80;75.20;;;;;;5019244;28;20033;-82
2021/12/04 17:32:20;;;;;;;17.23;9.53;;;4.90;75.20;;;;;;5007442;28;20427;-82
2021/12/04 17:34:51;;;;;;;15.70;7.65;;;4.90;75.20;;;;;;5029820;28;20033;-81
2021/12/04 17:37:17;;;;;;;15.25;8.70;;;4.90;74.90;;;;;;5010996;28;20034;-81
2021/12/04 17:39:43;;;;;;;15.68;8.65;;;4.90;75.00;;;;;;5033777;28;20029;-82
2021/12/04 17:42:09;;;;;;;13.60;7.23;;;4.90;75.00;;;;;;5030472;28;20029;-82
2021/12/04 17:44:35;;;;;;;23.65;13.20;;;4.80;75.40;;;;;;5011978;28;20344;-81
2021/12/04 17:47:02;;;;;;;24.67;12.48;;;4.80;75.00;;;;;;5022315;28;20026;-82
2021/12/04 17:49:28;;;;;;;16.08;9.25;;;4.70;75.20;;;;;;5020716;28;20030;-82
2021/12/04 17:51:56;;;;;;;16.55;8.18;;;4.70;75.60;;;;;;5008809;28;20222;-81
2021/12/04 17:54:23;;;;;;;18.48;9.82;;;4.70;75.60;;;;;;5028027;28;20317;-82
2021/12/04 17:56:51;;;;;;;17.45;10.57;;;4.70;75.70;;;;;;5019915;28;20096;-82
2021/12/04 17:59:23;;;;;;;17.92;9.30;;;4.80;76.40;;;;;;5005404;28;20080;-82
2021/12/04 18:01:53;;;;;;;17.73;9.27;;;4.70;77.00;;;;;;5022323;28;20334;-82
2021/12/04 18:04:26;;;;;;;15.15;8.75;;;4.70;77.00;;;;;;5036437;28;20017;-82
2021/12/04 18:06:55;;;;;;;16.58;8.57;;;4.70;77.70;;;;;;5033452;28;20026;-81
2021/12/04 18:09:21;;;;;;;17.98;10.15;;;4.70;77.70;;;;;;5023523;28;20424;-82
2021/12/04 18:11:58;;;;;;;17.30;10.77;;;4.60;78.00;;;;;;5005600;28;20104;-82
2021/12/04 18:14:26;;;;;;;17.25;9.60;;;4.60;79.00;;;;;;5027960;28;20022;-82
2021/12/04 18:16:55;;;;;;;25.65;12.43;;;4.60;78.90;;;;;;5022587;28;20017;-81
2021/12/04 18:19:25;;;;;;;18.33;9.80;;;4.60;79.30;;;;;;5035255;28;20025;-81
2021/12/04 18:21:52;;;;;;;20.40;12.30;;;4.60;79.60;;;;;;5003231;28;20075;-81
2021/12/04 18:24:19;;;;;;;22.75;12.73;;;4.50;79.50;;;;;;5008982;28;20040;-82
2021/12/04 18:26:45;;;;;;;;;;;4.50;79.60;;;;;;5025068;28;20300;-81
2021/12/04 18:29:12;;;;;;;34.67;17.67;;;4.50;80.10;;;;;;5003747;28;19915;-82
2021/12/04 18:31:39;;;;;;;22.10;10.82;;;4.50;79.90;;;;;;5004130;28;20640;-82
2021/12/04 18:34:05;;;;;;;21.80;10.77;;;4.50;80.00;;;;;;5023121;28;20044;-82
2021/12/04 18:36:33;;;;;;;22.13;10.43;;;4.50;80.00;;;;;;5004596;28;20033;-82
2021/12/04 18:38:59;;;;;;;20.15;10.48;;;4.50;80.30;;;;;;5035859;28;20222;-81
2021/12/04 18:41:26;;;;;;;19.50;10.75;;;4.50;80.50;;;;;;5023992;28;20268;-81
2021/12/04 18:43:55;;;;;;;24.33;12.68;;;4.40;80.30;;;;;;5017539;28;20037;-81
2021/12/04 18:46:24;;;;;;;20.75;11.45;;;4.40;80.80;;;;;;5023933;28;20029;-81
2021/12/04 18:48:50;;;;;;;21.33;11.38;;;4.40;81.00;;;;;;5040612;28;20029;-81
2021/12/04 18:51:16;;;;;;;21.00;12.10;;;4.40;80.60;;;;;;5038355;28;20026;-81
2021/12/04 18:53:42;;;;;;;23.03;11.93;;;4.40;80.60;;;;;;5022065;28;20033;-81
2021/12/04 18:56:11;;;;;;;19.85;12.07;;;4.40;80.90;;;;;;4995203;28;20133;-81
2021/12/04 18:58:39;;;;;;;21.85;13.18;;;4.40;81.00;;;;;;5005762;28;20055;-81
2021/12/04 19:01:06;;;;;;;19.17;11.27;;;4.40;81.00;;;;;;5036800;28;20037;-81
2021/12/04 19:03:32;;;;;;;23.25;11.98;;;4.40;81.00;;;;;;5025550;28;20217;-81
2021/12/04 19:05:58;;;;;;;18.25;10.88;;;4.40;81.30;;;;;;5007396;28;20044;-81
2021/12/04 19:08:24;;;;;;;22.38;10.73;;;4.40;81.40;;;;;;5019868;28;20025;-81
2021/12/04 19:10:51;;;;;;;18.02;10.48;;;4.40;81.50;;;;;;5010254;28;20029;-82
2021/12/04 19:13:17;;;;;;;22.20;11.37;;;4.40;81.70;;;;;;5023742;28;20025;-81
2021/12/04 19:15:43;;;;;;;20.50;11.73;;;4.30;82.00;;;;;;5030350;28;20492;-81
2021/12/04 19:18:11;;;;;;;45.60;22.40;;;4.30;82.30;;;;;;5023495;28;20288;-82
2021/12/04 19:20:42;;;;;;;58.35;31.63;;;4.30;82.40;;;;;;5024806;28;20048;-81
2021/12/04 19:23:08;;;;;;;28.42;16.23;;;4.30;82.70;;;;;;5023537;28;20113;-81
2021/12/04 19:25:34;;;;;;;150.32;75.82;;;4.30;82.60;;;;;;5018229;28;20206;-81
2021/12/04 19:28:01;;;;;;;103.72;52.80;;;4.30;82.70;;;;;;5008801;28;20017;-81
2021/12/04 19:30:36;;;;;;;32.88;18.10;;;4.30;83.10;;;;;;4994483;28;20034;-81
2021/12/04 19:33:20;;;;;;;26.67;13.15;;;4.30;83.00;;;;;;5027903;28;20363;-80
2021/12/04 19:52:09;;;;;;;26.08;13.23;;;4.20;83.80;;;;;;5010324;28;20058;-80
2021/12/04 19:54:44;;;;;;;20.23;11.27;;;4.30;83.90;;;;;;5021761;28;20025;-81
2021/12/04 19:57:17;;;;;;;18.80;11.57;;;4.20;84.00;;;;;;5034964;28;20040;-81
2021/12/04 19:59:43;;;;;;;20.20;11.43;;;4.20;84.20;;;;;;5018388;28;20087;-81
2021/12/04 20:02:33;;;;;;;19.20;11.65;;;4.20;84.30;;;;;;5026232;28;20029;-81
2021/12/04 20:15:41;;;;;;;22.60;13.57;;;4.30;84.20;;;;;;5026800;28;20108;-81
2021/12/04 20:18:13;;;;;;;28.48;12.55;;;4.30;84.20;;;;;;5022143;28;20057;-82
2021/12/04 20:20:43;;;;;;;21.33;11.73;;;4.30;84.40;;;;;;5015708;28;20038;-81
2021/12/04 20:23:11;;;;;;;23.15;12.43;;;4.30;84.60;;;;;;5018415;28;20318;-82
2021/12/04 20:25:44;;;;;;;23.33;11.60;;;4.30;84.60;;;;;;4995752;28;20034;-82